ADDS METAR Data INFO
IDs: Format: Raw Decoded Include TAF

Data at: 1558 UTC 12 Dec 2017

KSLK 121551Z AUTO 17010G17KT 1 1/4SM -SN BR BKN024 OVC030 M02/M03 A2941 RMK AO2 SNB1453 SLP985 P0000 T10171028 $
KSLK 121451Z AUTO 16012G16KT 1 1/4SM BR BKN023 OVC030 M02/M04 A2945 RMK AO2 SNB26SNEMM SLP999 P0000 60001 T10221039 57022 PWINO FZRANO $
KSLK 121431Z AUTO 15010G16KT 1 3/4SM -SN BR OVC027 M02/M04 A2946 RMK AO2 SNB26 P0000 T10221039
KSLK 121418Z AUTO 16008G16KT 2 1/2SM BR OVC027 M02/M04 A2946 RMK AO2 T10221044
KSLK 121351Z AUTO 16006KT 3SM BR BKN027 OVC033 M03/M04 A2947 RMK AO2 SNE42 SLP009 P0000 T10281044
KSLK 121334Z AUTO 12004KT 2SM -SN BR BKN026 OVC031 M04/M06 A2948 RMK AO2 P0000 T10441056
KSLK 121302Z AUTO VRB04KT 1 1/2SM -SN BR SCT019 OVC027 M06/M07 A2949 RMK AO2 P0000 T10561067
KSLK 121251Z AUTO VRB05KT 2 1/2SM -SN BR FEW013 SCT021 OVC029 M06/M07 A2950 RMK AO2 SNEMMB46 SLP020 P0001 T10611072
KSLK 121246Z AUTO 04005KT 2 1/2SM -SN BR FEW016 SCT020 OVC029 M06/M07 A2950 RMK AO2 SNEMMB46 P0001
KSLK 121238Z AUTO 01004KT 3SM BR FEW013 SCT020 OVC031 M06/M07 A2950 RMK AO2 SNEMM P0001 T10611067
KSLK 121229Z AUTO 03006KT 2SM BR FEW014 BKN020 OVC031 M06/M07 A2951 RMK AO2 SNEMM P0001 T10611072
KSLK 121217Z AUTO 04006KT 1 1/2SM BR BKN015 BKN019 OVC032 M07/M07 A2951 RMK AO2 SNEMM P0001 T10671072
KSLK 121151Z AUTO 1SM -SN BR VV013 M07/M07 A2952 RMK AO2 SLP026 P0002 60004 70004 T10671072 11050 21117 $
KSLK 121101Z AUTO 1SM -SN BR VV013 M07/M08 A2955 RMK AO2 P0000 T10721083 $
KSLK 121051Z AUTO 1 1/4SM -SN BR OVC015 M05/M06 A2956 RMK AO2 SLP036 P0001 T10501056 $
KSLK 121029Z AUTO 1 3/4SM -SN BR OVC017 M08/M09 A2956 RMK AO2 P0000 T10781089 $
KSLK 121021Z AUTO 05008KT 2SM -SN BR OVC019 M08/M09 A2957 RMK AO2 P0000 T10831089 $
KSLK 121007Z AUTO 03008KT 1 3/4SM -SN BR OVC021 M08/M09 A2958 RMK AO2 P0000 T10831094 $
KSLK 120956Z AUTO 04007KT 2SM -SN BR M08/M09 A2958 RMK AO2 P0000 T10831089 $
KSLK 120946Z AUTO 04007KT 1 3/4SM -SN BR M08/M09 A2959 RMK AO2 SNB39 SLP049 P0001 T10831094 $
KSLK 120945Z AUTO 04007KT 1 3/4SM -SN BR M08/M09 A2959 RMK AO2 SNB39 P0001 $
KSLK 120926Z AUTO 05007KT 2SM -SN BR OVC021 M09/M10 A2960 RMK AO2 P0001 T10891100 $
KSLK 120851Z AUTO 05008KT 1 1/4SM -SN BR OVC016 M09/M10 A2963 RMK AO2 SLP061 P0000 60000 T10891100 58041 $
KSLK 120841Z AUTO 05007KT 1 1/4SM -SN BR OVC020 M09/M10 A2964 RMK AO2 P0000 T10891100 $
KSLK 120828Z AUTO 05008KT 2 1/2SM -SN BR OVC026 M09/M11 A2965 RMK AO2 P0000 T10941106 $
KSLK 120751Z AUTO 04006KT 5SM -SN BR OVC034 M10/M12 A2967 RMK AO2 SNE12B37 SLP078 P0000 T11001117 $
KSLK 120651Z AUTO 05007KT 3SM -SN BR OVC034 M11/M13 A2972 RMK AO2 SLP094 P0000 T11111128 $
KSLK 120612Z AUTO 06007KT 3SM -SN BR BKN034 OVC041 M12/M13 A2974 RMK AO2 P0000 T11171128 $
KSLK 120605Z AUTO 07008KT 3SM -SN BR BKN028 OVC041 M12/M13 A2975 RMK AO2 P0000 T11171133 $
KSLK 120551Z AUTO 06007KT 3SM -SN BR SCT030 OVC043 M12/M13 A2976 RMK AO2 SLP107 P0000 60000 I6000 T11171133 11117 21161 58016 $
KSLK 120543Z AUTO 06009KT 3SM -SN BR BKN026 OVC043 M12/M13 A2976 RMK AO2 P0000 T11171133 $
KSLK 120536Z AUTO 05008KT 2 1/2SM -SN BR BKN024 OVC043 M12/M13 A2976 RMK AO2 P0000 T11171128 $
KSLK 120510Z AUTO 05008KT 1 1/2SM -SN BR OVC020 M12/M13 A2978 RMK AO2 P0000 T11171133 $
KSLK 120458Z AUTO 06008KT 2SM -SN BR BKN024 OVC037 M12/M13 A2979 RMK AO2 P0000 T11171133 $
KSLK 120451Z AUTO 06007KT 3SM -SN BR BKN026 OVC037 M12/M13 A2980 RMK AO2 SNB32 SLP121 P0000 T11171133 410501161 $
KSLK 120438Z AUTO 06005KT 3SM -SN BR BKN028 OVC038 M12/M13 A2980 RMK AO2 SNB32 P0000 T11171128 $
KSLK 120351Z AUTO 05004KT 10SM OVC085 M12/M13 A2981 RMK AO2 SLP125 T11171133 $
KSLK 120251Z AUTO 05007KT 10SM BKN033 OVC070 M12/M13 A2983 RMK AO2 SLP133 I3000 T11221133 56015 $
KSLK 120151Z AUTO 01003KT 10SM BKN080 M14/M15 A2984 RMK AO2 SLP138 T11391150
KSLK 120051Z AUTO 00000KT 10SM SCT100 M16/M16 A2986 RMK AO2 SLP146 I1000 T11561161
KSLK 112351Z AUTO 00000KT 10SM BKN100 M13/M14 A2987 RMK AO2 SLP150 T11281139 11083 21133 58007
KSLK 112251Z AUTO 00000KT 10SM FEW100 SCT120 M12/M13 A2989 RMK AO2 SLP154 T11221133
KSLK 112151Z AUTO 00000KT 10SM CLR M12/M13 A2990 RMK AO2 SLP155 T11221133
KSLK 112051Z AUTO 25003KT 10SM CLR M09/M14 A2989 RMK AO2 SLP151 T10941139 52007
KSLK 111951Z AUTO 26003KT 10SM CLR M09/M14 A2988 RMK AO2 SLP146 T10891144
KSLK 111851Z AUTO VRB05KT 10SM FEW038 M09/M15 A2988 RMK AO2 SLP148 T10941150
KSLK 111751Z AUTO 23009KT 10SM OVC037 M09/M13 A2987 RMK AO2 SLP143 60000 T10891128 11083 21100 58005
KSLK 111651Z AUTO 25006KT 10SM FEW024 OVC036 M09/M12 A2988 RMK AO2 SLP144 T10891122
KSLK 111551Z AUTO 24005KT 10SM OVC040 M09/M12 A2989 RMK AO2 SLP150 T10941122
KSLK 111514Z AUTO 25005KT 3SM BR SCT015 OVC041 M09/M12 A2990 RMK AO2 T10941117
KSLK 111509Z AUTO 28003KT 2 1/2SM BR BKN015 OVC041 M10/M12 A2989 RMK AO2 T11001117
KSLK 111451Z AUTO 26005KT 5SM BR SCT015 BKN030 OVC039 M09/M12 A2989 RMK AO2 SNB12E31 SLP148 P0000 60000 T10941117 53014
KSLK 111440Z AUTO 25006KT 4SM BR BKN016 BKN030 OVC038 M09/M12 A2988 RMK AO2 SNB12E31 P0000 T10941117
KSLK 111417Z AUTO 27003KT 2SM -SN BR OVC015 M09/M12 A2987 RMK AO2 SNB12 P0000 T10941117
KSLK 111351Z AUTO VRB04KT 6SM BR BKN014 BKN019 OVC060 M09/M11 A2986 RMK AO2 SLP139 T10941111 $
KSLK 111349Z AUTO 28003KT 6SM BR BKN015 OVC060 M09/M11 A2986 RMK AO2 $
KSLK 111251Z AUTO VRB04KT 10SM OVC042 M09/M11 A2984 RMK AO2 SLP133 T10941106 $
KSLK 111151Z AUTO 27003KT 10SM BKN044 OVC065 M09/M11 A2982 RMK AO2 SNE05 SLP126 P0000 60002 70006 T10941106 11050 21094 53020 $
KSLK 111102Z AUTO VRB03KT 4SM -SN BR FEW027 OVC035 M08/M09 A2981 RMK AO2 P0000 T10831094 $
KSLK 111051Z AUTO 00000KT 2 1/2SM -SN BR OVC029 M08/M09 A2980 RMK AO2 SLP119 P0000 T10831094 $
KSLK 111042Z AUTO VRB04KT 2SM -SN BR OVC029 M08/M09 A2980 RMK AO2 P0000 T10781094 $
KSLK 111026Z AUTO VRB03KT 3SM -SN BR SCT008 BKN027 OVC043 M08/M09 A2979 RMK AO2 P0000 T10781089 $
KSLK 111006Z AUTO VRB04KT 2SM -SN BR SCT008 OVC025 M07/M07 A2978 RMK AO2 P0000 T10671072 $
KSLK 110951Z AUTO 32005KT 2SM -SN BR BKN021 OVC028 M07/M07 A2978 RMK AO2 SLP108 P0001 T10671072 $
KSLK 110922Z AUTO VRB04KT 1 1/4SM -SN BR FEW009 BKN015 OVC020 M06/M07 A2977 RMK AO2 P0001 T10611067 $
KSLK 110902Z AUTO VRB04KT 1SM -SN BR FEW008 BKN013 OVC019 M05/M06 A2976 RMK AO2 P0000 T10501056 $
KSLK 110851Z AUTO VRB04KT 1 1/4SM -SN BR BKN008 BKN012 OVC017 M05/M06 A2976 RMK AO2 SLP100 P0001 60001 T10501056 51007 $
KSLK 110841Z AUTO 24004KT 1 1/2SM -SN BR BKN008 BKN014 OVC019 M05/M06 A2976 RMK AO2 P0001 T10501056 $
KSLK 110812Z AUTO 22005KT 2 1/2SM -SN BR BKN009 OVC033 M05/M06 A2975 RMK AO2 P0000 T10501056 $
KSLK 110805Z AUTO 23005KT 3SM -SN BR SCT009 OVC031 M05/M06 A2975 RMK AO2 P0000 T10501056 $
KSLK 110751Z AUTO 23005KT 2SM -SN BR FEW009 OVC024 M05/M06 A2975 RMK AO2 SLP098 P0000 T10501056 $
KSLK 110740Z AUTO 23005KT 1 1/2SM -SN BR FEW008 OVC020 M05/M06 A2975 RMK AO2 P0000 T10501056 $
KSLK 110733Z AUTO 24005KT 2SM -SN BR FEW008 OVC020 M05/M06 A2975 RMK AO2 P0000 T10501056 $
KSLK 110721Z AUTO 25006KT 1 3/4SM -SN BR SCT008 OVC020 M05/M06 A2975 RMK AO2 P0000 T10501056 $
KSLK 110700Z AUTO 22005KT 1 3/4SM -SN BR BKN009 OVC020 M05/M06 A2975 RMK AO2 P0000 T10501056 $
KSLK 110651Z AUTO 23005KT 1 1/2SM -SN BR SCT008 OVC020 M05/M06 A2974 RMK AO2 SLP095 P0000 T10501056 $
KSLK 110627Z AUTO 23007KT 1 1/2SM -SN BR FEW007 FEW013 OVC019 M05/M06 A2974 RMK AO2 P0000 T10501061 $
KSLK 110614Z AUTO 23006KT 2 1/2SM -SN BR SCT009 OVC023 M05/M06 A2974 RMK AO2 P0000 T10501056 $
KSLK 110601Z AUTO 23006KT 3SM -SN BR OVC009 M05/M06 A2973 RMK AO2 CIG 006V013 P0000 T10501056 $
KSLK 110551Z AUTO 23006KT 2 1/2SM -SN BR OVC007 M05/M06 A2974 RMK AO2 CIG 006V012 SLP092 P0001 60004 T10501056 11050 21061 51004 $
KSLK 110543Z AUTO 23006KT 2SM -SN BR OVC008 M05/M06 A2974 RMK AO2 CIG 006V011 P0001 T10501056 $
KSLK 110506Z AUTO 23006KT 1 3/4SM -SN BR BKN009 BKN019 OVC024 M05/M06 A2974 RMK AO2 P0000 T10501056 $
KSLK 110451Z AUTO 22006KT 2SM -SN BR BKN008 OVC023 M05/M06 A2974 RMK AO2 SLP093 P0000 T10501056 410391122 $
KSLK 110437Z AUTO 22006KT 1 3/4SM -SN BR BKN008 BKN019 OVC024 M05/M06 A2974 RMK AO2 P0000 T10501056 $
KSLK 110429Z AUTO 22007KT 2SM -SN BR BKN008 BKN020 OVC029 M05/M06 A2974 RMK AO2 P0000 T10501056 $
KSLK 110418Z AUTO 22005KT 2SM -SN BR SCT009 BKN017 OVC029 M05/M06 A2974 RMK AO2 P0000 T10501056 $